< < Back
Terminal Aerodrome Forecast


Current Version              Previous Versions:   1  2  3  4  5  6  7  8  9  

Terminal Aerodrome Forecast

162
FTUS44 KHUN 220520
TAFHSV
TAF
KHSV 220520Z 2206/2306 11005KT P6SM SCT050 BKN120
     FM221300 14011KT P6SM SCT120 BKN250
     FM230100 15010KT P6SM BKN030 OVC070=



Latest METAR

597
SAUS80 KWBC 230200 RRA
MTRHSV
METAR KHSV 230153Z 11007KT 10SM BKN037 BKN049 OVC250 14/04 A3014 RMK AO2
SLP203 T01440044 $


USA.gov is the U.S. government's official web portal to all federal, state and local government web resources and services.